Main page
METAR-TAF:

METAR-TAF

Airports :

Curaçao, Netherlands Antilles

Curaçao International Airport

latitude: 12-12N, longitude: 068-58W, elevation: 9 m

Current weather observation

The report was made 42 minutes ago, at 20:00 UTC
Wind 9 kt from the East
Temperature 31°C
Humidity 63%
Pressure 1011 hPa
Visibility 10 km or more
Scattered clouds at a height of 2200 ft

METAR: TNCC 232000Z 09009KT 9999 SCT022 31/23 Q1011 NOSIG

Time: 16:42 (20:42 UTC)

Forecast

The report was made 4 hours and 42 minutes ago, at 16:00 UTC
Forecast valid from 23 at 18 UTC to 24 at 18 UTC
Wind 13 kt from the East
Visibility 10 km or more
Scattered clouds at a height of 2000 ft

TAF: TNCC 231600Z 2318/2418 09013KT 9999 SCT020

Weather observations and forecasts of more than 4000 airports (METAR and TAF reports).

The available stations are represented by yellow and red dots on the map.

Hover mouse over dot to see the name of the station.

Then click to see weather observations and forecasts.

To change the map : click on the green buttons with a black cross to zoom in, on the green button with a dash to zoom out, or on the green arrows for adjacent maps.


METAR-TAF: